Time;durP1;ratioP1;P1;durP2;ratioP2;P2;SDS_P1;SDS_P2;PMS_P1;PMS_P2;Temp;Humidity;BMP_temperature;BMP_pressure;BME280_temperature;BME280_humidity;BME280_pressure;Samples;Min_cycle;Max_cycle;Signal;HPM_P1;HPM_P2
2022/11/15 00:01:17;;;;;;;;;22.00;19.25;;;;;21.50;58.44;100225.91;5020153;28;45242;-51
2022/11/15 00:03:43;;;;;;;;;15.75;14.25;;;;;21.50;58.64;100225.06;5021583;28;45432;-48
2022/11/15 00:06:08;;;;;;;;;19.00;17.50;;;;;21.50;59.05;100225.91;5003321;28;45375;-50
2022/11/15 00:08:34;;;;;;;;;24.75;17.00;;;;;21.50;58.89;100222.41;5018903;28;68478;-47
2022/11/15 00:11:00;;;;;;;;;16.00;15.00;;;;;21.49;58.43;100220.69;5019981;28;45393;-52
2022/11/15 00:13:26;;;;;;;;;19.50;15.50;;;;;21.48;58.57;100217.16;5021593;28;45355;-52
2022/11/15 00:15:51;;;;;;;;;16.75;16.75;;;;;21.48;58.68;100217.16;5021137;28;45533;-51
2022/11/15 00:18:16;;;;;;;;;16.00;15.00;;;;;21.47;58.40;100209.28;5021029;28;52331;-49
2022/11/15 00:20:42;;;;;;;;;24.25;20.50;;;;;21.47;58.77;100209.28;5020939;28;45321;-50
2022/11/15 00:23:08;;;;;;;;;20.00;17.25;;;;;21.46;58.46;100205.75;5020077;28;45343;-52
2022/11/15 00:25:33;;;;;;;;;19.00;14.75;;;;;21.47;58.41;100203.97;5020361;28;66388;-51
2022/11/15 00:27:59;;;;;;;;;23.00;16.75;;;;;21.48;58.48;100205.69;5019459;28;47022;-50
2022/11/15 00:30:25;;;;;;;;;16.00;14.75;;;;;21.46;58.61;100203.09;5020168;28;45343;-49
2022/11/15 00:32:50;;;;;;;;;17.50;16.00;;;;;21.45;58.67;100204.88;5018746;28;51351;-50
2022/11/15 00:35:15;;;;;;;;;21.25;18.00;;;;;21.47;58.80;100206.63;5018781;28;45300;-45
2022/11/15 00:37:41;;;;;;;;;17.50;15.50;;;;;21.45;58.57;100201.34;5019912;28;70708;-52
2022/11/15 00:40:07;;;;;;;;;17.00;15.00;;;;;21.46;58.54;100192.47;5018870;28;45198;-50
2022/11/15 00:42:32;;;;;;;;;16.25;15.75;;;;;21.45;58.62;100190.72;5020507;28;45417;-48
2022/11/15 00:44:58;;;;;;;;;22.75;18.00;;;;;21.45;58.34;100191.59;5019089;28;45269;-49
2022/11/15 00:47:23;;;;;;;;;17.50;15.50;;;;;21.43;58.59;100182.84;5019830;28;66004;-48
2022/11/15 00:49:49;;;;;;;;;18.00;16.50;;;;;21.47;58.56;100190.69;5019536;28;70661;-49
2022/11/15 00:52:14;;;;;;;;;17.00;14.75;;;;;21.44;58.65;100189.00;5018701;28;46013;-50
2022/11/15 00:54:40;;;;;;;;;18.50;16.50;;;;;21.41;58.35;100190.00;5017917;28;45504;-47
2022/11/15 00:57:05;;;;;;;;;17.75;15.00;;;;;21.42;58.42;100183.78;5017082;28;46193;-49
2022/11/15 00:59:31;;;;;;;;;15.25;14.50;;;;;21.40;58.50;100174.16;5019348;28;68212;-49
2022/11/15 01:01:56;;;;;;;;;17.75;16.25;;;;;21.40;59.01;100174.16;5018431;28;45422;-46
2022/11/15 01:04:21;;;;;;;;;16.25;13.75;;;;;21.41;58.57;100170.56;5019013;28;65596;-45
2022/11/15 01:06:47;;;;;;;;;14.75;13.75;;;;;21.41;58.62;100173.22;5016802;28;64292;-52
2022/11/15 01:09:13;;;;;;;;;16.00;15.25;;;;;21.41;58.52;100170.56;5019119;28;45466;-49
2022/11/15 01:11:38;;;;;;;;;19.25;15.50;;;;;21.40;58.75;100169.72;5018366;28;45456;-48
2022/11/15 01:14:04;;;;;;;;;17.00;15.00;;;;;21.40;58.82;100161.75;5019430;28;62855;-47
2022/11/15 01:16:29;;;;;;;;;15.00;12.00;;;;;21.40;58.52;100159.09;5016145;28;46417;-50
2022/11/15 01:18:54;;;;;;;;;13.25;11.50;;;;;21.41;58.72;100160.81;5018579;28;45462;-47
2022/11/15 01:21:20;;;;;;;;;15.25;13.25;;;;;21.40;58.62;100161.75;5017148;28;65435;-46
2022/11/15 01:23:45;;;;;;;;;15.75;13.50;;;;;21.40;58.67;100147.59;5019634;28;45396;-48
2022/11/15 01:26:12;;;;;;;;;13.25;11.50;;;;;21.41;58.92;100144.88;5016542;28;46963;-46
2022/11/15 01:28:38;;;;;;;;;16.25;14.25;;;;;21.40;58.51;100152.91;5018115;28;45465;-47
2022/11/15 01:31:06;;;;;;;;;16.75;13.50;;;;;21.41;58.23;100157.28;5017493;28;45465;-50
2022/11/15 01:33:34;;;;;;;;;12.25;12.00;;;;;21.39;58.31;100145.88;5018425;28;45386;-49
2022/11/15 01:36:02;;;;;;;;;17.25;13.25;;;;;21.40;58.55;100144.97;5016144;28;45504;-49
2022/11/15 01:38:28;;;;;;;;;18.00;14.50;;;;;21.39;58.62;100138.78;5017731;28;45363;-48
2022/11/15 01:40:53;;;;;;;;;12.25;11.00;;;;;21.39;58.64;100143.25;5016366;28;68711;-49
2022/11/15 01:43:28;;;;;;;;;16.25;12.00;;;;;21.39;58.51;100129.97;5018846;28;56641;-50
2022/11/15 01:46:01;;;;;;;;;13.50;11.25;;;;;21.39;58.03;100132.63;5017241;28;45407;-48
2022/11/15 01:48:30;;;;;;;;;14.25;12.75;;;;;21.38;58.50;100121.13;5001513;28;45419;-51
2022/11/15 01:50:56;;;;;;;;;12.75;12.00;;;;;21.38;58.52;100128.25;5000440;28;45406;-46
2022/11/15 01:53:21;;;;;;;;;10.25;10.25;;;;;21.38;58.33;100120.28;5018084;28;45804;-47
2022/11/15 01:55:47;;;;;;;;;14.00;12.25;;;;;21.39;58.55;100117.53;4996013;28;61347;-49
2022/11/15 01:58:12;;;;;;;;;12.00;10.50;;;;;21.38;58.30;100112.31;5000373;28;45322;-45
2022/11/15 02:00:37;;;;;;;;;13.75;10.50;;;;;21.38;58.37;100102.56;5017034;28;45418;-49
2022/11/15 02:03:03;;;;;;;;;13.25;11.75;;;;;21.37;58.22;100095.53;5017861;28;55298;-48
2022/11/15 02:05:29;;;;;;;;;11.25;9.75;;;;;21.37;58.29;100098.19;5015822;28;45958;-46
2022/11/15 02:07:54;;;;;;;;;16.75;12.00;;;;;21.36;57.98;100090.25;5001552;28;45549;-47
2022/11/15 02:10:21;;;;;;;;;14.00;11.75;;;;;21.36;58.40;100085.81;4999176;28;67106;-48
2022/11/15 02:12:46;;;;;;;;;13.00;12.50;;;;;21.36;58.56;100087.59;5018715;28;45591;-45
2022/11/15 02:15:12;;;;;;;;;11.50;10.25;;;;;21.36;58.13;100080.50;5014954;28;67537;-45
2022/11/15 02:17:56;;;;;;;;;12.75;11.25;;;;;21.36;58.19;100083.16;5000848;28;47626;-45
2022/11/15 02:20:44;;;;;;;;;14.25;11.75;;;;;21.37;58.57;100073.41;5019005;28;45303;-46
2022/11/15 02:23:24;;;;;;;;;15.75;10.75;;;;;21.36;58.56;100075.19;5021206;28;45350;-47
2022/11/15 02:26:25;;;;;;;;;10.00;9.25;;;;;21.34;58.04;100069.09;5020647;28;45644;-45
2022/11/15 02:29:05;;;;;;;;;14.25;11.50;;;;;21.33;58.08;100064.72;5017634;28;45315;-45
2022/11/15 02:31:59;;;;;;;;;12.50;12.00;;;;;21.33;58.30;100056.75;4999328;28;45466;-48
2022/11/15 02:34:43;;;;;;;;;13.50;9.75;;;;;21.33;58.29;100059.41;5019821;28;45264;-45
2022/11/15 02:37:29;;;;;;;;;9.75;9.75;;;;;21.34;58.42;100047.00;5020382;28;46562;-49
2022/11/15 02:40:10;;;;;;;;;12.25;10.00;;;;;21.33;58.30;100048.81;5020897;28;45359;-46
2022/11/15 02:45:40;;;;;;;;;10.50;9.50;;;;;21.32;58.39;100041.78;5040013;28;45299;-45
2022/11/15 02:48:06;;;;;;;;;6.00;5.50;;;;;21.32;57.68;100038.25;5024553;28;46733;-45
2022/11/15 02:50:31;;;;;;;;;10.25;7.75;;;;;21.33;58.13;100039.97;4999352;28;62106;-47
2022/11/15 02:52:57;;;;;;;;;11.00;10.50;;;;;21.32;58.20;100041.78;5001888;28;57855;-44
2022/11/15 02:55:51;;;;;;;;;11.00;10.00;;;;;21.31;57.86;100029.44;5018675;28;57275;-44
2022/11/15 02:59:05;;;;;;;;;7.50;7.50;;;;;21.31;57.98;100024.13;5026006;28;46119;-48
2022/11/15 03:01:45;;;;;;;;;8.00;7.25;;;;;21.30;57.93;100013.59;5017655;28;45296;-48
2022/11/15 03:04:19;;;;;;;;;10.50;8.25;;;;;21.31;58.20;100002.03;5022082;28;45473;-50
2022/11/15 03:06:50;;;;;;;;;11.25;9.25;;;;;21.30;58.13;100006.47;5019870;28;45513;-50
2022/11/15 03:09:55;;;;;;;;;8.50;8.50;;;;;21.30;58.29;99993.22;5003938;28;46112;-46
2022/11/15 03:12:25;;;;;;;;;10.25;8.75;;;;;21.28;57.82;99992.41;5019335;28;45292;-46
2022/11/15 03:14:53;;;;;;;;;10.50;8.75;;;;;21.29;57.92;99996.81;5010235;28;45320;-47
2022/11/15 03:17:21;;;;;;;;;8.75;8.25;;;;;21.28;57.80;99989.75;5020353;28;45462;-46
2022/11/15 03:19:47;;;;;;;;;10.75;8.00;;;;;21.29;57.73;99995.94;5003705;28;47462;-47
2022/11/15 03:22:16;;;;;;;;;7.50;7.00;;;;;21.27;57.89;99980.06;5001813;28;45457;-47
2022/11/15 03:24:42;;;;;;;;;11.25;9.25;;;;;21.28;57.88;99980.94;5021396;28;45545;-46
2022/11/15 03:27:07;;;;;;;;;10.75;9.50;;;;;21.28;57.64;99980.94;5018687;28;45761;-48
2022/11/15 03:29:34;;;;;;;;;12.00;9.00;;;;;21.27;57.46;99977.41;5003702;28;47275;-45
2022/11/15 03:32:03;;;;;;;;;11.00;9.00;;;;;21.27;57.36;99973.91;4983494;28;45365;-47
2022/11/15 03:34:32;;;;;;;;;9.50;8.00;;;;;21.27;57.45;99985.38;5019732;28;45272;-45
2022/11/15 03:36:57;;;;;;;;;10.75;8.75;;;;;21.27;57.39;99974.75;5001788;28;45508;-48
2022/11/15 03:39:23;;;;;;;;;10.50;9.75;;;;;21.27;57.16;99968.59;5021199;28;46181;-47
2022/11/15 03:41:50;;;;;;;;;10.25;9.75;;;;;21.27;57.91;99963.28;5017612;28;45572;-45
2022/11/15 03:44:30;;;;;;;;;12.00;8.25;;;;;21.25;57.52;99958.03;5020473;28;45401;-46
2022/11/15 03:47:06;;;;;;;;;9.00;8.50;;;;;21.25;58.15;99954.50;5018077;28;45406;-46
2022/11/15 03:49:35;;;;;;;;;8.75;7.50;;;;;21.25;57.81;99958.03;5020031;28;46323;-52
2022/11/15 03:52:02;;;;;;;;;10.00;7.25;;;;;21.24;57.77;99961.59;5017880;28;45534;-51
2022/11/15 03:54:28;;;;;;;;;6.75;6.75;;;;;21.24;57.51;99964.25;5018858;28;45882;-51
2022/11/15 03:56:53;;;;;;;;;10.25;9.25;;;;;21.24;57.61;99956.31;5018963;28;52719;-49
2022/11/15 03:59:18;;;;;;;;;9.00;7.00;;;;;21.25;57.63;99954.50;5019563;28;45898;-48
2022/11/15 04:01:44;;;;;;;;;7.75;7.25;;;;;21.24;57.84;99944.81;5017294;28;45375;-49
2022/11/15 04:04:09;;;;;;;;;9.75;9.00;;;;;21.25;57.60;99951.84;5020178;28;60464;-48
2022/11/15 04:06:35;;;;;;;;;5.75;5.75;;;;;21.25;57.31;99938.59;5018177;28;63525;-52
2022/11/15 04:09:00;;;;;;;;;8.50;6.00;;;;;21.24;57.43;99948.34;5020073;28;65080;-49
2022/11/15 04:11:25;;;;;;;;;10.25;10.00;;;;;21.23;56.94;99946.63;5018825;28;45457;-48
2022/11/15 04:13:51;;;;;;;;;6.75;6.75;;;;;21.23;57.32;99938.66;5020554;28;58764;-50
2022/11/15 04:16:16;;;;;;;;;10.25;9.00;;;;;21.22;57.39;99936.94;5018260;28;67606;-51
2022/11/15 04:18:41;;;;;;;;;7.75;7.00;;;;;21.22;57.08;99944.06;5020448;28;45275;-51
2022/11/15 04:26:21;;;;;;;;;5.50;5.25;;;;;21.20;57.09;99933.50;5019021;28;45485;-49
2022/11/15 04:31:30;;;;;;;;;5.75;4.75;;;;;21.18;56.89;99933.56;5017816;28;45308;-51
2022/11/15 04:33:55;;;;;;;;;6.00;6.00;;;;;21.18;57.05;99932.69;5002203;28;60346;-50
2022/11/15 04:39:05;;;;;;;;;6.50;6.00;;;;;21.17;57.20;99926.53;5009046;28;45760;-48
2022/11/15 04:41:30;;;;;;;;;7.75;6.75;;;;;21.18;57.20;99919.44;5000455;28;46469;-46
2022/11/15 04:43:55;;;;;;;;;7.75;6.00;;;;;21.17;57.14;99918.56;5018226;28;65713;-46
2022/11/15 04:46:22;;;;;;;;;7.00;5.25;;;;;21.16;57.10;99919.50;5017705;28;59837;-47
2022/11/15 04:48:47;;;;;;;;;8.00;7.00;;;;;21.17;57.07;99909.75;5020271;28;45369;-50
2022/11/15 04:51:12;;;;;;;;;7.75;6.25;;;;;21.16;57.38;99905.38;4999782;28;71030;-50
2022/11/15 04:53:38;;;;;;;;;7.50;6.00;;;;;21.15;57.10;99901.88;5019494;28;59471;-49
2022/11/15 04:56:03;;;;;;;;;6.50;5.25;;;;;21.15;57.16;99896.56;5017103;28;71154;-48
2022/11/15 04:58:29;;;;;;;;;5.50;5.50;;;;;21.14;56.93;99897.50;5018623;28;47980;-45
2022/11/15 05:00:54;;;;;;;;;4.00;4.00;;;;;21.13;56.85;99895.78;5017368;28;66716;-48
2022/11/15 05:06:04;;;;;;;;;5.50;5.25;;;;;21.12;57.02;99888.75;5016789;28;45517;-45
2022/11/15 05:08:29;;;;;;;;;4.25;4.00;;;;;21.13;57.46;99886.97;5001787;28;46163;-50
2022/11/15 05:10:54;;;;;;;;;8.75;6.50;;;;;21.13;57.26;99892.28;5016045;28;71663;-46
2022/11/15 05:13:20;;;;;;;;;6.00;4.75;;;;;21.12;57.44;99890.56;5019390;28;63704;-47
2022/11/15 05:15:45;;;;;;;;;5.00;5.00;;;;;21.12;57.41;99893.22;5017325;28;66881;-49
2022/11/15 05:18:10;;;;;;;;;8.00;5.00;;;;;21.12;57.33;99887.91;5019261;28;63701;-46
2022/11/15 05:20:36;;;;;;;;;6.00;6.00;;;;;21.12;57.44;99877.28;5016687;28;68453;-49
2022/11/15 05:23:01;;;;;;;;;5.50;5.00;;;;;21.11;57.44;99883.50;5019292;28;60880;-47
2022/11/15 05:25:26;;;;;;;;;6.00;6.00;;;;;21.12;57.93;99890.56;5016506;28;65585;-46
2022/11/15 05:27:52;;;;;;;;;7.00;5.50;;;;;21.11;57.43;99879.09;5018563;28;45414;-45
2022/11/15 05:30:17;;;;;;;;;5.50;5.00;;;;;21.11;57.80;99884.41;5016884;28;45734;-50
2022/11/15 05:32:43;;;;;;;;;5.25;5.25;;;;;21.14;57.38;99889.53;5001153;28;62130;-50
2022/11/15 05:35:10;;;;;;;;;5.75;5.00;;;;;21.15;57.78;99893.06;5016460;28;46104;-46
2022/11/15 05:37:35;;;;;;;;;5.50;5.50;;;;;21.15;57.47;99895.72;5018562;28;45375;-47
2022/11/15 05:40:01;;;;;;;;;4.50;4.50;;;;;21.14;57.60;99891.34;4999663;28;46432;-48
2022/11/15 05:42:26;;;;;;;;;8.00;5.00;;;;;21.15;57.74;99890.41;5016791;28;66592;-47
2022/11/15 05:44:52;;;;;;;;;4.00;4.00;;;;;21.15;57.79;99891.25;5019323;28;57345;-46
2022/11/15 05:47:19;;;;;;;;;5.00;5.00;;;;;21.16;57.76;99898.28;5015588;28;47756;-48
2022/11/15 05:49:45;;;;;;;;;7.50;6.50;;;;;21.17;57.74;99889.38;5014877;28;45540;-51
2022/11/15 05:52:11;;;;;;;;;4.50;4.25;;;;;21.17;57.66;99884.06;5016176;28;62718;-48
2022/11/15 05:54:37;;;;;;;;;6.50;4.00;;;;;21.18;57.91;99872.53;4986251;28;45648;-47
2022/11/15 05:57:03;;;;;;;;;8.25;5.50;;;;;21.19;58.01;99862.75;5023455;28;67778;-46
2022/11/15 05:59:30;;;;;;;;;5.00;4.75;;;;;21.20;57.94;99860.97;5025914;28;45395;-45
2022/11/15 06:01:55;;;;;;;;;6.50;5.00;;;;;21.20;57.92;99869.81;5006162;28;45269;-46
2022/11/15 06:04:21;;;;;;;;;7.25;6.00;;;;;21.20;57.77;99856.56;4989828;28;45436;-45
2022/11/15 06:06:46;;;;;;;;;3.50;3.50;;;;;21.20;57.62;99851.25;5023207;28;58347;-50
2022/11/15 06:09:11;;;;;;;;;4.25;4.25;;;;;21.21;57.62;99849.44;5006783;28;57498;-46
2022/11/15 06:11:37;;;;;;;;;7.00;5.00;;;;;21.22;57.68;99835.25;5023418;28;61701;-51
2022/11/15 06:14:02;;;;;;;;;6.50;6.00;;;;;21.22;57.72;99838.75;5021842;28;45413;-49
2022/11/15 06:16:27;;;;;;;;;6.50;5.25;;;;;21.23;57.50;99845.78;5022661;28;54467;-49
2022/11/15 06:18:53;;;;;;;;;5.75;5.00;;;;;21.23;57.25;99843.13;5025412;28;59241;-47
2022/11/15 06:21:18;;;;;;;;;6.25;5.75;;;;;21.25;57.76;99837.75;5002034;28;63880;-47
2022/11/15 06:23:44;;;;;;;;;3.75;3.00;;;;;21.25;57.70;99824.47;5017009;28;46228;-46
2022/11/15 06:26:09;;;;;;;;;5.75;4.00;;;;;21.24;58.08;99815.66;5022948;28;69217;-47
2022/11/15 06:28:35;;;;;;;;;4.25;4.00;;;;;21.26;57.65;99823.53;5023168;28;64086;-46
2022/11/15 06:31:04;;;;;;;;;5.50;5.00;;;;;21.26;57.63;99808.47;5023767;28;45307;-48
2022/11/15 06:33:29;;;;;;;;;5.00;5.00;;;;;21.27;57.58;99804.03;5024078;28;45392;-48
2022/11/15 06:35:55;;;;;;;;;4.00;4.00;;;;;21.27;58.00;99807.56;5021227;28;48576;-46
2022/11/15 06:38:20;;;;;;;;;6.25;4.50;;;;;21.27;57.51;99804.91;5023437;28;68956;-49
2022/11/15 06:40:45;;;;;;;;;6.00;5.00;;;;;21.28;57.86;99809.28;5023051;28;45317;-50
2022/11/15 06:43:11;;;;;;;;;4.25;3.75;;;;;21.28;57.87;99801.31;5023169;28;64418;-46
2022/11/15 06:45:36;;;;;;;;;7.50;4.00;;;;;21.29;57.66;99787.13;5022247;28;47041;-48
2022/11/15 06:48:02;;;;;;;;;7.25;4.00;;;;;21.30;57.69;99786.19;5024884;28;60220;-47
2022/11/15 06:50:27;;;;;;;;;5.50;5.00;;;;;21.30;58.22;99782.69;5022879;28;46353;-49
2022/11/15 06:52:52;;;;;;;;;4.00;4.00;;;;;21.29;58.15;99780.97;5025434;28;45312;-45
2022/11/15 06:55:18;;;;;;;;;5.50;4.25;;;;;21.30;57.63;99783.53;5021819;28;45442;-49
2022/11/15 06:57:48;;;;;;;;;6.00;4.00;;;;;21.32;57.34;99779.00;5005606;28;45241;-51
2022/11/15 07:00:14;;;;;;;;;5.25;3.00;;;;;21.33;58.12;99772.75;5021834;28;45410;-49
2022/11/15 07:02:39;;;;;;;;;5.00;4.00;;;;;21.34;57.98;99763.84;5024716;28;45938;-47
2022/11/15 07:05:05;;;;;;;;;7.00;4.50;;;;;21.34;58.08;99758.53;5022704;28;54701;-51
2022/11/15 07:07:30;;;;;;;;;4.25;4.00;;;;;21.35;58.29;99749.63;5021202;28;45388;-47
2022/11/15 07:09:56;;;;;;;;;6.00;4.50;;;;;21.36;58.47;99748.69;5020611;28;48424;-49
2022/11/15 07:12:21;;;;;;;;;6.50;5.00;;;;;21.36;58.61;99734.56;5002810;28;45454;-50
2022/11/15 07:14:47;;;;;;;;;5.50;5.00;;;;;21.37;58.18;99742.47;5020908;28;66319;-47
2022/11/15 07:17:12;;;;;;;;;6.00;4.50;;;;;21.37;57.83;99744.25;5002211;28;45319;-48
2022/11/15 07:19:37;;;;;;;;;5.00;5.00;;;;;21.36;58.21;99747.84;5021438;28;51061;-50
2022/11/15 07:22:03;;;;;;;;;9.50;5.00;;;;;21.36;58.16;99751.34;5018143;28;65951;-47
2022/11/15 07:24:28;;;;;;;;;6.75;4.25;;;;;21.36;58.52;99755.81;5018810;28;74001;-50
2022/11/15 07:26:54;;;;;;;;;4.50;4.00;;;;;21.36;58.03;99761.97;5019373;28;64109;-46
2022/11/15 07:29:19;;;;;;;;;7.25;6.00;;;;;21.37;58.15;99755.75;5021562;28;45332;-49
2022/11/15 07:31:44;;;;;;;;;6.50;5.25;;;;;21.37;58.35;99749.56;5018253;28;45447;-50
2022/11/15 07:34:10;;;;;;;;;7.25;5.00;;;;;21.37;58.21;99750.44;5020460;28;71187;-50
2022/11/15 07:36:35;;;;;;;;;4.25;4.00;;;;;21.39;58.43;99758.31;5018329;28;45450;-47
2022/11/15 07:39:01;;;;;;;;;3.50;3.25;;;;;21.39;58.11;99753.03;5018379;28;61141;-51
2022/11/15 07:41:26;;;;;;;;;6.00;6.00;;;;;21.39;58.38;99743.25;5017900;28;63376;-47
2022/11/15 07:43:52;;;;;;;;;6.75;5.75;;;;;21.40;58.89;99741.47;5018836;28;46083;-46
2022/11/15 07:46:17;;;;;;;;;6.25;4.50;;;;;21.42;58.35;99739.56;5018385;28;45524;-46
2022/11/15 07:48:43;;;;;;;;;6.75;6.75;;;;;21.41;58.09;99733.41;5019720;28;45916;-49
2022/11/15 07:51:14;;;;;;;;;6.50;6.00;;;;;21.43;57.75;99731.53;5018341;28;45489;-48
2022/11/15 07:53:39;;;;;;;;;6.25;5.00;;;;;21.42;58.05;99729.81;4986725;28;47633;-46
2022/11/15 07:56:08;;;;;;;;;6.50;4.00;;;;;21.41;57.69;99712.19;5016999;28;45545;-50
2022/11/15 07:58:33;;;;;;;;;7.25;5.00;;;;;21.41;58.01;99713.97;5003344;28;45377;-51
2022/11/15 08:01:02;;;;;;;;;3.00;3.00;;;;;21.42;57.70;99705.06;5019418;28;56238;-51
2022/11/15 08:03:28;;;;;;;;;5.75;5.25;;;;;21.40;57.77;99713.13;5017434;28;47367;-50
2022/11/15 08:05:53;;;;;;;;;3.25;3.25;;;;;21.42;57.46;99705.06;5018801;28;55844;-48
2022/11/15 08:08:19;;;;;;;;;6.25;4.50;;;;;21.42;57.39;99703.28;5019587;28;45529;-50
2022/11/15 08:10:44;;;;;;;;;4.75;4.50;;;;;21.42;57.67;99700.63;5020823;28;51564;-48
2022/11/15 08:13:10;;;;;;;;;4.25;4.25;;;;;21.43;57.59;99701.47;5020925;28;45952;-47
2022/11/15 08:15:36;;;;;;;;;3.00;3.00;;;;;21.43;57.85;99699.66;4986427;28;45890;-50
2022/11/15 08:18:06;;;;;;;;;7.00;5.00;;;;;21.45;57.90;99705.75;5003508;28;45431;-48
2022/11/15 08:20:31;;;;;;;;;6.25;4.75;;;;;21.45;57.52;99703.09;5020053;28;45350;-48
2022/11/15 08:23:01;;;;;;;;;5.75;4.75;;;;;21.46;57.57;99704.00;5018669;28;45776;-51
2022/11/15 08:25:27;;;;;;;;;5.50;4.00;;;;;21.48;57.88;99709.22;5020463;28;45253;-47
2022/11/15 08:27:53;;;;;;;;;5.75;4.50;;;;;21.49;57.87;99708.28;5021204;28;45398;-49
2022/11/15 08:30:18;;;;;;;;;6.50;4.25;;;;;21.49;57.62;99700.31;5020932;28;45358;-50
2022/11/15 08:32:44;;;;;;;;;6.25;4.25;;;;;21.49;57.94;99692.34;5020751;28;65124;-50
2022/11/15 08:35:09;;;;;;;;;6.00;4.25;;;;;21.50;57.53;99683.44;5002776;28;45487;-47
2022/11/15 08:37:35;;;;;;;;;5.75;5.75;;;;;21.48;57.93;99687.97;5003143;28;45335;-50
2022/11/15 08:40:01;;;;;;;;;6.50;5.25;;;;;21.50;57.98;99684.28;5018795;28;45519;-51
2022/11/15 08:42:26;;;;;;;;;6.75;5.00;;;;;21.50;57.92;99680.78;5018091;28;67828;-50
2022/11/15 08:44:52;;;;;;;;;9.25;7.50;;;;;21.52;58.10;99681.56;5019013;28;45283;-52
2022/11/15 08:47:17;;;;;;;;;6.25;6.00;;;;;21.49;58.03;99679.91;4986034;28;45516;-50
2022/11/15 08:49:42;;;;;;;;;5.25;5.25;;;;;21.50;58.36;99668.38;5020718;28;45363;-50
2022/11/15 08:52:08;;;;;;;;;7.75;6.25;;;;;21.52;57.85;99673.59;5018905;28;59469;-49
2022/11/15 08:54:33;;;;;;;;;6.75;6.00;;;;;21.53;57.88;99665.53;5019217;28;45344;-54
2022/11/15 08:56:59;;;;;;;;;5.00;5.00;;;;;21.54;58.51;99661.06;5018690;28;57726;-51
2022/11/15 08:59:24;;;;;;;;;7.75;6.00;;;;;21.54;57.86;99651.31;5002904;28;45232;-50
2022/11/15 09:01:49;;;;;;;;;4.75;4.75;;;;;21.55;58.18;99647.75;5019327;28;63904;-50
2022/11/15 09:04:15;;;;;;;;;8.25;5.75;;;;;21.56;57.78;99646.81;5018129;28;69572;-50
2022/11/15 09:06:40;;;;;;;;;10.00;5.50;;;;;21.56;57.80;99637.97;5019691;28;67593;-52
2022/11/15 09:09:05;;;;;;;;;6.00;6.00;;;;;21.58;57.76;99636.94;5020061;28;57401;-49
2022/11/15 09:11:31;;;;;;;;;6.00;4.50;;;;;21.57;58.02;99635.25;5019078;28;72866;-47
2022/11/15 09:13:56;;;;;;;;;5.00;5.00;;;;;21.57;57.56;99642.34;5002413;28;45250;-47
2022/11/15 09:16:22;;;;;;;;;8.50;6.75;;;;;21.57;57.68;99637.03;5018841;28;63656;-48
2022/11/15 09:18:47;;;;;;;;;6.50;5.25;;;;;21.57;57.65;99637.03;5019173;28;45385;-51
2022/11/15 09:21:13;;;;;;;;;9.25;6.50;;;;;21.56;58.09;99628.22;5001571;28;71879;-50
2022/11/15 09:23:38;;;;;;;;;6.50;6.25;;;;;21.56;57.64;99635.31;5020148;28;45374;-46
2022/11/15 09:26:04;;;;;;;;;10.00;8.00;;;;;21.57;57.69;99629.94;5019091;28;45409;-49
2022/11/15 09:28:30;;;;;;;;;8.50;7.25;;;;;21.56;58.14;99632.69;5020375;28;45453;-46
2022/11/15 09:30:59;;;;;;;;;8.25;6.00;;;;;21.58;58.13;99639.59;5017899;28;46069;-48
2022/11/15 09:33:24;;;;;;;;;12.00;6.00;;;;;21.57;57.84;99631.72;5018961;28;45200;-51
2022/11/15 09:35:50;;;;;;;;;7.00;6.00;;;;;21.57;57.68;99637.91;5018826;28;45413;-49
2022/11/15 09:38:16;;;;;;;;;7.50;7.25;;;;;21.56;58.06;99636.19;5018478;28;45422;-49
2022/11/15 09:40:42;;;;;;;;;10.25;6.50;;;;;21.57;58.16;99632.59;5018651;28;46898;-49
2022/11/15 09:43:16;;;;;;;;;6.00;3.00;;;;;21.58;58.05;99631.66;5018617;28;45252;-50
2022/11/15 09:46:00;;;;;;;;;8.25;6.50;;;;;21.58;57.62;99638.75;5018755;28;45233;-46
2022/11/15 09:48:35;;;;;;;;;7.50;6.75;;;;;21.58;57.86;99634.28;5019994;28;45158;-51
2022/11/15 09:51:01;;;;;;;;;9.50;7.00;;;;;21.59;58.04;99632.50;5017768;28;47481;-52
2022/11/15 09:54:02;;;;;;;;;8.50;7.00;;;;;21.57;58.01;99629.94;5018074;28;45224;-50
2022/11/15 09:56:30;;;;;;;;;6.00;6.00;;;;;21.56;57.82;99633.53;5039208;28;45784;-48
2022/11/15 09:58:57;;;;;;;;;9.00;6.50;;;;;21.56;58.09;99641.50;5019709;28;45454;-48
2022/11/15 10:01:46;;;;;;;;;8.75;7.50;;;;;21.57;57.64;99629.06;5018014;28;47766;-48
2022/11/15 10:04:11;;;;;;;;;8.00;7.00;;;;;21.56;57.55;99617.59;5017823;28;45342;-47
2022/11/15 10:06:40;;;;;;;;;7.75;6.50;;;;;21.57;58.11;99616.66;5019778;28;45232;-46
2022/11/15 10:09:28;;;;;;;;;10.50;9.75;;;;;21.57;57.64;99610.50;5018145;28;45519;-50
2022/11/15 10:11:54;;;;;;;;;5.75;5.75;;;;;21.58;57.68;99606.88;5003925;28;45593;-46
2022/11/15 10:14:24;;;;;;;;;12.50;9.00;;;;;21.57;57.62;99606.03;5016912;28;48745;-51
2022/11/15 10:17:06;;;;;;;;;7.00;7.00;;;;;21.57;57.79;99584.78;5001373;28;45283;-50
2022/11/15 10:19:58;;;;;;;;;7.00;5.75;;;;;21.57;57.91;99576.84;4999315;28;45474;-47
2022/11/15 10:22:35;;;;;;;;;7.75;7.25;;;;;21.56;57.73;99567.16;5015568;28;46309;-49
2022/11/15 10:25:12;;;;;;;;;11.50;8.00;;;;;21.57;57.81;99560.03;5001169;28;45472;-48
2022/11/15 10:27:39;;;;;;;;;10.50;8.50;;;;;21.57;57.86;99560.03;5018268;28;45383;-48
2022/11/15 10:30:14;;;;;;;;;8.25;8.00;;;;;21.59;57.94;99564.31;5017290;28;46001;-50
2022/11/15 10:32:40;;;;;;;;;9.00;8.00;;;;;21.60;58.05;99565.19;5017403;28;45352;-48
2022/11/15 10:35:18;;;;;;;;;10.50;8.00;;;;;21.60;58.21;99563.38;5016426;28;45200;-49
2022/11/15 10:37:43;;;;;;;;;6.75;6.25;;;;;21.60;58.18;99549.25;5017041;28;45410;-46
2022/11/15 10:40:15;;;;;;;;;7.75;7.75;;;;;21.61;58.05;99545.66;5016634;28;62993;-48
2022/11/15 10:42:42;;;;;;;;;8.00;6.75;;;;;21.61;58.41;99546.50;5021405;28;45217;-47
2022/11/15 10:45:25;;;;;;;;;11.00;7.00;;;;;21.61;58.12;99543.00;4989824;28;45387;-47
2022/11/15 10:47:50;;;;;;;;;8.75;8.00;;;;;21.61;58.18;99543.00;5022446;28;45227;-47
2022/11/15 10:50:30;;;;;;;;;7.50;6.25;;;;;21.60;58.19;99535.97;5021848;28;63335;-49
2022/11/15 10:52:56;;;;;;;;;8.50;7.75;;;;;21.60;58.14;99530.66;5021930;28;47150;-45
2022/11/15 10:55:25;;;;;;;;;9.00;7.75;;;;;21.59;58.62;99531.59;5020672;28;61217;-51
2022/11/15 10:57:55;;;;;;;;;11.00;8.25;;;;;21.58;58.42;99521.94;5022440;28;45243;-52
2022/11/15 11:00:20;;;;;;;;;8.50;8.25;;;;;21.57;58.69;99515.75;5021211;28;45543;-51
2022/11/15 11:02:55;;;;;;;;;9.75;6.50;;;;;21.59;58.21;99505.06;5022297;28;46202;-52
2022/11/15 11:05:36;;;;;;;;;9.50;7.00;;;;;21.59;58.23;99510.38;5004380;28;45581;-51
2022/11/15 11:08:15;;;;;;;;;9.50;8.25;;;;;21.59;59.04;99505.91;5020199;28;45485;-52
2022/11/15 11:10:53;;;;;;;;;5.75;5.50;;;;;21.58;58.69;99490.91;5020976;28;45863;-52
2022/11/15 11:13:23;;;;;;;;;7.50;6.50;;;;;21.58;58.52;99493.56;5022245;28;46001;-49
2022/11/15 11:15:53;;;;;;;;;7.25;7.25;;;;;21.57;58.40;99491.00;5021072;28;45482;-52
2022/11/15 11:18:27;;;;;;;;;7.75;5.00;;;;;21.57;59.20;99486.56;5016208;28;46524;-51
2022/11/15 11:20:58;;;;;;;;;5.00;4.00;;;;;21.56;58.88;99479.53;5017224;28;45497;-49
2022/11/15 11:23:38;;;;;;;;;7.50;7.50;;;;;21.57;58.75;99475.94;5004150;28;46166;-50
2022/11/15 11:26:29;;;;;;;;;9.75;8.00;;;;;21.59;59.10;99481.16;5004125;28;45427;-49
2022/11/15 11:29:26;;;;;;;;;8.75;7.00;;;;;21.58;58.34;99467.03;5020942;28;45318;-49
2022/11/15 11:31:57;;;;;;;;;5.00;5.00;;;;;21.59;58.81;99476.69;5017056;28;45335;-50
2022/11/15 11:34:38;;;;;;;;;8.00;5.25;;;;;21.59;58.88;99468.75;5021839;28;45399;-49
2022/11/15 11:37:11;;;;;;;;;9.00;7.50;;;;;21.59;58.62;99466.06;5022348;28;45359;-52
2022/11/15 11:39:57;;;;;;;;;8.00;8.00;;;;;21.58;58.51;99458.22;5004039;28;45380;-51
2022/11/15 11:42:42;;;;;;;;;8.25;5.25;;;;;21.57;58.59;99453.84;5019642;28;45456;-50
2022/11/15 11:45:51;;;;;;;;;4.75;4.75;;;;;21.57;58.47;99454.69;5020169;28;47048;-50
2022/11/15 11:48:26;;;;;;;;;8.00;6.00;;;;;21.57;58.91;99457.34;5013636;28;45232;-48
2022/11/15 11:50:51;;;;;;;;;6.00;5.00;;;;;21.56;58.39;99453.00;5020802;28;45474;-47